createdAt,value
2022-08-10T00:01:52.257Z,20.17
2022-08-10T00:04:22.536Z,20.16
2022-08-10T00:06:54.422Z,20.16
2022-08-10T00:09:23.465Z,20.14
2022-08-10T00:11:52.219Z,20.08
2022-08-10T00:14:22.185Z,20.01
2022-08-10T00:16:50.520Z,19.99
2022-08-10T00:19:19.027Z,19.98
2022-08-10T00:21:47.640Z,19.93
2022-08-10T00:24:16.083Z,19.86
2022-08-10T00:27:53.121Z,19.83
2022-08-10T00:29:36.409Z,19.79
2022-08-10T00:32:05.049Z,19.80
2022-08-10T00:34:36.067Z,19.76
2022-08-10T00:37:04.716Z,19.67
2022-08-10T00:39:35.874Z,19.67
2022-08-10T00:42:08.280Z,19.63
2022-08-10T00:44:40.341Z,19.60
2022-08-10T00:47:16.303Z,19.57
2022-08-10T00:50:00.604Z,19.67
2022-08-10T00:52:30.938Z,19.57
2022-08-10T00:54:59.931Z,19.53
2022-08-10T00:57:28.782Z,19.55
2022-08-10T01:00:00.376Z,19.55
2022-08-10T01:02:33.541Z,19.55
2022-08-10T01:05:05.497Z,19.53
2022-08-10T01:07:49.501Z,19.57
2022-08-10T01:10:30.723Z,19.57
2022-08-10T01:13:07.665Z,19.55
2022-08-10T01:15:48.992Z,19.51
2022-08-10T01:18:22.721Z,19.46
2022-08-10T01:21:17.998Z,19.41
2022-08-10T01:24:09.957Z,19.34
2022-08-10T01:26:49.197Z,19.28
2022-08-10T01:29:53.956Z,19.24
2022-08-10T01:32:32.222Z,19.16
2022-08-10T01:35:07.661Z,19.14
2022-08-10T01:37:42.487Z,19.14
2022-08-10T01:40:25.662Z,19.04
2022-08-10T01:42:59.820Z,19.02
2022-08-10T01:45:44.673Z,18.92
2022-08-10T01:48:29.294Z,18.90
2022-08-10T01:51:02.303Z,18.82
2022-08-10T01:53:40.108Z,18.83
2022-08-10T01:56:11.979Z,18.72
2022-08-10T01:58:42.057Z,18.63
2022-08-10T02:01:16.978Z,18.62
2022-08-10T02:04:05.302Z,18.54
2022-08-10T02:06:38.092Z,18.42
2022-08-10T02:09:10.050Z,18.43
2022-08-10T02:12:05.900Z,18.43
2022-08-10T02:14:32.820Z,18.43
2022-08-10T02:17:04.064Z,18.41
2022-08-10T02:19:36.560Z,18.39
2022-08-10T02:22:36.729Z,18.35
2022-08-10T02:24:58.273Z,18.32
2022-08-10T02:27:28.540Z,18.21
2022-08-10T02:29:58.560Z,18.19
2022-08-10T02:32:38.305Z,18.18
2022-08-10T02:35:17.778Z,18.04
2022-08-10T02:37:54.084Z,18.09
2022-08-10T02:42:17.950Z,18.05
2022-08-10T02:45:20.984Z,17.92
2022-08-10T02:46:20.925Z,17.99
2022-08-10T02:49:00.051Z,17.98
2022-08-10T02:52:08.112Z,17.96
2022-08-10T02:54:27.917Z,17.93
2022-08-10T02:56:59.490Z,18.01
2022-08-10T02:59:39.844Z,17.93
2022-08-10T03:02:14.456Z,17.91
2022-08-10T03:04:55.792Z,17.88
2022-08-10T03:07:43.032Z,17.80
2022-08-10T03:10:16.708Z,17.73
2022-08-10T03:12:46.743Z,17.74
2022-08-10T03:15:17.750Z,17.65
2022-08-10T03:17:56.882Z,17.65
2022-08-10T03:23:42.675Z,17.66
2022-08-10T03:26:11.606Z,17.62
2022-08-10T03:28:42.259Z,17.70
2022-08-10T03:31:10.814Z,17.62
2022-08-10T03:33:40.795Z,17.62
2022-08-10T03:36:41.333Z,17.61
2022-08-10T03:38:59.850Z,17.55
2022-08-10T03:41:35.653Z,17.53
2022-08-10T03:44:07.071Z,17.60
2022-08-10T03:46:38.346Z,17.57
2022-08-10T03:49:08.183Z,17.49
2022-08-10T03:51:38.278Z,17.40
2022-08-10T03:54:10.318Z,17.38
2022-08-10T03:56:42.023Z,17.41
2022-08-10T03:59:15.250Z,17.33
2022-08-10T04:02:46.061Z,17.27
2022-08-10T04:04:32.227Z,17.28
2022-08-10T04:07:01.155Z,17.26
2022-08-10T04:09:55.668Z,17.29
2022-08-10T04:12:20.920Z,17.25
2022-08-10T04:14:53.177Z,17.36
2022-08-10T04:17:56.685Z,17.29
2022-08-10T04:20:19.212Z,17.22
2022-08-10T04:22:49.684Z,17.16
2022-08-10T04:25:22.974Z,17.23
2022-08-10T04:27:55.356Z,17.21
2022-08-10T04:30:28.260Z,17.19
2022-08-10T04:32:59.817Z,17.20
2022-08-10T04:35:30.372Z,17.21
2022-08-10T04:38:00.442Z,17.24
2022-08-10T04:40:31.259Z,17.30
2022-08-10T04:43:05.770Z,17.29
2022-08-10T04:45:49.963Z,17.36
2022-08-10T04:48:40.414Z,17.46
2022-08-10T04:51:18.302Z,17.40
2022-08-10T04:54:06.124Z,17.44
2022-08-10T04:56:38.859Z,17.50
2022-08-10T04:59:08.055Z,17.56
2022-08-10T05:02:21.916Z,17.59
2022-08-10T05:04:37.747Z,17.70
2022-08-10T05:07:10.234Z,17.70
2022-08-10T05:10:04.569Z,17.86
2022-08-10T05:12:29.308Z,17.93
2022-08-10T05:14:57.915Z,18.01
2022-08-10T05:17:25.917Z,18.12
2022-08-10T05:20:02.237Z,18.31
2022-08-10T05:22:38.658Z,18.57
2022-08-10T05:25:11.265Z,18.95
2022-08-10T05:27:41.184Z,19.44
2022-08-10T05:30:11.812Z,20.01
2022-08-10T05:32:57.639Z,20.36
2022-08-10T05:35:55.101Z,20.76
2022-08-10T05:38:23.987Z,21.16
2022-08-10T05:40:55.454Z,21.57
2022-08-10T05:43:27.266Z,21.82
2022-08-10T05:46:17.956Z,22.08
2022-08-10T05:48:59.549Z,22.36
2022-08-10T05:51:29.990Z,22.14
2022-08-10T05:54:01.155Z,22.71
2022-08-10T05:56:55.678Z,22.91
2022-08-10T06:00:34.658Z,22.89
2022-08-10T06:02:41.307Z,23.15
2022-08-10T06:05:10.280Z,23.26
2022-08-10T06:07:41.940Z,23.47
2022-08-10T06:10:28.526Z,23.44
2022-08-10T06:13:30.256Z,23.65
2022-08-10T06:16:08.238Z,23.81
2022-08-10T06:18:37.932Z,23.91
2022-08-10T06:21:07.045Z,24.11
2022-08-10T06:23:37.237Z,24.84
2022-08-10T06:26:12.166Z,25.20
2022-08-10T06:28:52.798Z,25.13
2022-08-10T06:31:47.906Z,25.65
2022-08-10T06:34:25.575Z,26.07
2022-08-10T06:36:56.346Z,26.13
2022-08-10T06:39:36.468Z,26.63
2022-08-10T06:42:18.130Z,26.68
2022-08-10T06:44:57.934Z,27.35
2022-08-10T06:47:33.722Z,26.93
2022-08-10T06:50:09.525Z,27.59
2022-08-10T06:52:39.500Z,27.67
2022-08-10T06:55:16.828Z,28.01
2022-08-10T06:57:59.683Z,28.82
2022-08-10T07:00:33.482Z,29.15
2022-08-10T07:03:11.829Z,29.41
2022-08-10T07:05:46.872Z,29.24
2022-08-10T07:08:19.122Z,29.60
2022-08-10T07:10:48.638Z,29.67
2022-08-10T07:14:16.019Z,29.99
2022-08-10T07:16:12.495Z,30.57
2022-08-10T07:18:47.025Z,31.14
2022-08-10T07:21:16.434Z,31.49
2022-08-10T07:23:57.084Z,31.08
2022-08-10T07:26:32.016Z,32.21
2022-08-10T07:29:01.459Z,31.79
2022-08-10T07:31:29.961Z,31.47
2022-08-10T07:34:29.120Z,32.35
2022-08-10T07:37:03.113Z,31.95
2022-08-10T07:40:02.330Z,33.19
2022-08-10T07:42:23.544Z,32.71
2022-08-10T07:44:52.172Z,33.12
2022-08-10T07:47:52.938Z,33.94
2022-08-10T07:50:22.904Z,34.11
2022-08-10T07:52:53.127Z,34.33
2022-08-10T07:56:04.372Z,33.68
2022-08-10T07:58:14.969Z,33.41
2022-08-10T08:00:44.798Z,33.38
2022-08-10T08:03:15.155Z,33.79
2022-08-10T08:05:58.366Z,33.70
2022-08-10T08:08:32.220Z,33.80
2022-08-10T08:11:01.120Z,35.05
2022-08-10T08:13:30.426Z,34.69
2022-08-10T08:16:17.533Z,35.02
2022-08-10T08:19:09.977Z,35.15
2022-08-10T08:24:42.571Z,35.80
2022-08-10T08:27:15.298Z,35.74
2022-08-10T08:29:47.422Z,35.30
2022-08-10T08:32:22.354Z,36.13
2022-08-10T08:34:55.979Z,36.46
2022-08-10T08:38:31.170Z,37.08
2022-08-10T08:40:20.435Z,37.11
2022-08-10T08:43:18.033Z,37.13
2022-08-10T08:46:16.029Z,36.74
2022-08-10T08:49:07.243Z,37.10
2022-08-10T08:52:09.538Z,36.62
2022-08-10T08:54:47.960Z,36.48
2022-08-10T08:57:49.167Z,36.42
2022-08-10T09:00:27.096Z,35.38
2022-08-10T09:03:33.333Z,35.17
2022-08-10T09:06:17.050Z,35.13
2022-08-10T09:09:04.597Z,35.96
2022-08-10T09:11:45.648Z,36.45
2022-08-10T09:14:25.686Z,36.36
2022-08-10T09:17:00.640Z,35.87
2022-08-10T09:19:35.669Z,35.47
2022-08-10T09:22:19.432Z,35.42
2022-08-10T09:24:55.047Z,34.50
2022-08-10T09:27:35.678Z,34.27
2022-08-10T09:30:08.459Z,34.28
2022-08-10T09:36:14.153Z,33.95
2022-08-10T09:36:28.350Z,34.32
2022-08-10T09:38:43.961Z,34.42
2022-08-10T09:41:26.726Z,35.44
2022-08-10T09:44:09.732Z,35.32
2022-08-10T09:46:58.732Z,35.32
2022-08-10T09:49:54.423Z,35.00
2022-08-10T09:52:32.381Z,35.57
2022-08-10T09:55:14.307Z,36.50
2022-08-10T09:57:57.628Z,36.31
2022-08-10T10:00:31.697Z,35.34
2022-08-10T10:03:13.469Z,35.74
2022-08-10T10:05:52.657Z,35.87
2022-08-10T10:08:33.591Z,35.81
2022-08-10T10:11:08.880Z,35.30
2022-08-10T10:14:02.521Z,34.92
2022-08-10T10:16:55.205Z,36.32
2022-08-10T10:19:40.854Z,36.09
2022-08-10T10:22:26.286Z,35.99
2022-08-10T10:25:20.790Z,35.81
2022-08-10T10:27:59.143Z,35.49
2022-08-10T10:30:36.224Z,36.52
2022-08-10T10:33:14.448Z,37.95
2022-08-10T10:35:52.367Z,38.22
2022-08-10T10:38:24.025Z,36.46
2022-08-10T10:41:01.655Z,35.77
2022-08-10T10:43:43.316Z,35.07
2022-08-10T10:46:24.803Z,35.27
2022-08-10T10:49:01.589Z,35.19
2022-08-10T10:51:39.555Z,34.28
2022-08-10T10:54:13.009Z,35.17
2022-08-10T10:56:56.821Z,37.04
2022-08-10T10:59:55.364Z,36.06
2022-08-10T11:03:00.883Z,37.31
2022-08-10T11:05:39.287Z,36.12
2022-08-10T11:08:16.435Z,36.35
2022-08-10T11:10:52.716Z,35.85
2022-08-10T11:14:25.089Z,35.59
2022-08-10T11:16:39.019Z,34.79
2022-08-10T11:19:14.252Z,34.55
2022-08-10T11:21:55.416Z,35.14
2022-08-10T11:24:48.930Z,35.35
2022-08-10T11:27:34.912Z,34.17
2022-08-10T11:30:07.886Z,35.19
2022-08-10T11:32:49.269Z,35.66
2022-08-10T11:35:25.999Z,34.50
2022-08-10T11:38:28.394Z,34.86
2022-08-10T11:41:12.806Z,34.88
2022-08-10T11:44:02.161Z,34.63
2022-08-10T11:46:33.622Z,34.21
2022-08-10T11:49:10.813Z,33.92
2022-08-10T11:51:49.694Z,34.64
2022-08-10T11:54:30.840Z,35.45
2022-08-10T11:57:03.108Z,34.50
2022-08-10T11:59:57.985Z,34.80
2022-08-10T12:02:32.781Z,34.93
2022-08-10T12:05:07.451Z,33.91
2022-08-10T12:10:04.375Z,33.00
2022-08-10T12:10:29.259Z,33.17
2022-08-10T12:13:07.947Z,32.62
2022-08-10T12:15:42.084Z,32.69
2022-08-10T12:18:18.791Z,32.21
2022-08-10T12:20:51.826Z,32.46
2022-08-10T12:23:26.965Z,32.68
2022-08-10T12:26:07.452Z,32.42
2022-08-10T12:28:49.938Z,31.90
2022-08-10T12:31:25.012Z,31.93
2022-08-10T12:34:09.905Z,31.28
2022-08-10T12:36:43.902Z,31.61
2022-08-10T12:39:19.960Z,32.13
2022-08-10T12:41:53.917Z,31.78
2022-08-10T12:44:35.748Z,31.69
2022-08-10T12:47:21.318Z,31.59
2022-08-10T12:50:13.776Z,30.85
2022-08-10T12:52:52.510Z,31.00
2022-08-10T12:55:24.282Z,31.42
2022-08-10T12:57:55.862Z,31.69
2022-08-10T13:00:31.195Z,31.58
2022-08-10T13:03:01.661Z,31.15
2022-08-10T13:05:32.731Z,31.34
2022-08-10T13:08:40.196Z,31.38
2022-08-10T13:11:20.168Z,31.09
2022-08-10T13:14:04.922Z,31.09
2022-08-10T13:16:35.209Z,31.22
2022-08-10T13:19:05.472Z,31.27
2022-08-10T13:21:37.350Z,31.48
2022-08-10T13:25:43.176Z,31.43
2022-08-10T13:28:37.407Z,31.71
2022-08-10T13:31:04.760Z,31.23
2022-08-10T13:34:39.868Z,31.20
2022-08-10T13:36:29.805Z,31.23
2022-08-10T13:38:58.971Z,31.28
2022-08-10T13:41:30.416Z,31.14
2022-08-10T13:44:01.345Z,31.38
2022-08-10T13:46:29.460Z,31.29
2022-08-10T13:49:04.151Z,30.83
2022-08-10T13:51:56.473Z,30.92
2022-08-10T13:54:28.764Z,30.86
2022-08-10T13:57:00.056Z,30.81
2022-08-10T14:00:34.509Z,30.73
2022-08-10T14:02:26.007Z,30.68
2022-08-10T14:04:57.207Z,30.80
2022-08-10T14:07:27.162Z,30.89
2022-08-10T14:10:07.021Z,31.14
2022-08-10T14:12:40.412Z,30.81
2022-08-10T14:15:12.452Z,30.72
2022-08-10T14:17:44.919Z,30.80
2022-08-10T14:20:20.888Z,30.84
2022-08-10T14:22:50.345Z,30.79
2022-08-10T14:25:18.428Z,31.09
2022-08-10T14:28:02.284Z,31.50
2022-08-10T14:30:34.043Z,31.58
2022-08-10T14:33:04.995Z,31.62
2022-08-10T14:36:22.259Z,31.57
2022-08-10T14:38:30.233Z,31.39
2022-08-10T14:41:01.130Z,31.49
2022-08-10T14:43:39.678Z,31.38
2022-08-10T14:46:19.592Z,30.89
2022-08-10T14:48:52.568Z,30.98
2022-08-10T14:51:27.236Z,30.77
2022-08-10T14:54:15.866Z,30.65
2022-08-10T14:56:49.878Z,30.66
2022-08-10T14:59:20.967Z,30.62
2022-08-10T15:02:38.651Z,30.44
2022-08-10T15:04:53.072Z,30.20
2022-08-10T15:07:22.670Z,30.12
2022-08-10T15:10:00.166Z,30.23
2022-08-10T15:12:35.761Z,30.18
2022-08-10T15:15:08.163Z,30.07
2022-08-10T15:17:43.004Z,30.09
2022-08-10T15:20:20.785Z,30.02
2022-08-10T15:22:55.739Z,30.09
2022-08-10T15:25:27.075Z,30.27
2022-08-10T15:28:05.661Z,30.39
2022-08-10T15:30:42.622Z,30.52
2022-08-10T15:34:03.865Z,30.43
2022-08-10T15:36:41.999Z,30.24
2022-08-10T15:40:21.007Z,30.31
2022-08-10T15:42:08.682Z,30.22
2022-08-10T15:44:42.406Z,30.05
2022-08-10T15:47:16.897Z,30.11
2022-08-10T15:49:53.267Z,30.10
2022-08-10T15:52:39.083Z,30.01
2022-08-10T15:55:43.164Z,30.00
2022-08-10T15:58:12.318Z,30.17
2022-08-10T16:00:51.315Z,29.90
2022-08-10T16:03:31.673Z,29.96
2022-08-10T16:06:03.537Z,29.99
2022-08-10T16:08:56.178Z,29.84
2022-08-10T16:11:37.659Z,29.74
2022-08-10T16:14:11.342Z,29.75
2022-08-10T16:16:40.990Z,29.81
2022-08-10T16:19:22.432Z,29.84
2022-08-10T16:21:55.730Z,29.84
2022-08-10T16:24:30.907Z,29.88
2022-08-10T16:27:06.538Z,29.86
2022-08-10T16:29:56.482Z,29.89
2022-08-10T16:32:28.109Z,29.85
2022-08-10T16:35:02.286Z,29.73
2022-08-10T16:37:57.603Z,29.64
2022-08-10T16:40:29.764Z,29.66
2022-08-10T16:43:02.384Z,29.55
2022-08-10T16:45:34.200Z,29.57
2022-08-10T16:48:06.108Z,29.56
2022-08-10T16:50:41.709Z,29.48
2022-08-10T16:53:13.481Z,29.45
2022-08-10T16:55:50.370Z,29.47
2022-08-10T16:58:27.561Z,29.44
2022-08-10T17:01:02.274Z,29.34
2022-08-10T17:04:06.734Z,29.15
2022-08-10T17:06:28.074Z,29.28
2022-08-10T17:08:58.716Z,29.19
2022-08-10T17:11:31.635Z,29.11
2022-08-10T17:14:01.034Z,29.02
2022-08-10T17:16:35.706Z,29.02
2022-08-10T17:19:13.126Z,28.96
2022-08-10T17:21:51.567Z,28.88
2022-08-10T17:24:25.079Z,28.88
2022-08-10T17:26:53.230Z,28.81
2022-08-10T17:29:58.166Z,28.75
2022-08-10T17:32:20.994Z,28.66
2022-08-10T17:34:53.931Z,28.64
2022-08-10T17:37:29.166Z,28.58
2022-08-10T17:40:02.815Z,28.53
2022-08-10T17:42:32.042Z,28.46
2022-08-10T17:45:04.294Z,28.41
2022-08-10T17:47:34.452Z,28.30
2022-08-10T17:50:03.400Z,28.27
2022-08-10T17:52:34.335Z,28.30
2022-08-10T17:55:06.825Z,28.23
2022-08-10T17:57:39.060Z,28.19
2022-08-10T18:00:13.905Z,28.15
2022-08-10T18:02:46.072Z,28.05
2022-08-10T18:05:15.941Z,28.01
2022-08-10T18:07:51.182Z,27.87
2022-08-10T18:10:22.001Z,27.84
2022-08-10T18:12:54.407Z,27.72
2022-08-10T18:15:28.727Z,27.62
2022-08-10T18:18:01.791Z,27.45
2022-08-10T18:20:35.650Z,27.37
2022-08-10T18:23:08.060Z,27.43
2022-08-10T18:26:46.161Z,27.27
2022-08-10T18:29:18.834Z,27.29
2022-08-10T18:31:49.411Z,27.17
2022-08-10T18:34:20.934Z,27.13
2022-08-10T18:36:50.268Z,27.12
2022-08-10T18:39:24.985Z,27.03
2022-08-10T18:42:05.592Z,27.01
2022-08-10T18:44:37.423Z,26.88
2022-08-10T18:47:13.711Z,26.88
2022-08-10T18:49:57.830Z,26.73
2022-08-10T18:52:28.808Z,26.62
2022-08-10T18:55:04.957Z,26.48
2022-08-10T18:58:16.721Z,26.24
2022-08-10T19:01:05.056Z,26.16
2022-08-10T19:03:54.082Z,26.07
2022-08-10T19:06:51.290Z,25.97
2022-08-10T19:09:46.475Z,25.81
2022-08-10T19:12:32.981Z,25.73
2022-08-10T19:15:18.572Z,25.41
2022-08-10T19:18:04.085Z,25.16
2022-08-10T19:20:40.452Z,25.09
2022-08-10T19:23:34.219Z,25.30
2022-08-10T19:26:41.861Z,25.14
2022-08-10T19:29:10.907Z,24.86
2022-08-10T19:32:11.272Z,24.67
2022-08-10T19:34:51.292Z,24.59
2022-08-10T19:37:32.698Z,24.41
2022-08-10T19:40:18.854Z,24.42
2022-08-10T19:43:26.656Z,24.47
2022-08-10T19:46:11.439Z,24.30
2022-08-10T19:48:46.368Z,24.15
2022-08-10T19:51:17.635Z,24.00
2022-08-10T19:53:57.911Z,23.81
2022-08-10T19:56:37.032Z,23.77
2022-08-10T19:59:16.341Z,23.65
2022-08-10T20:02:05.247Z,23.55
2022-08-10T20:04:42.111Z,23.76
2022-08-10T20:07:17.692Z,23.79
2022-08-10T20:09:52.327Z,23.91
2022-08-10T20:12:35.773Z,23.88
2022-08-10T20:15:11.114Z,23.92
2022-08-10T20:17:52.438Z,23.91
2022-08-10T20:20:31.775Z,23.98
2022-08-10T20:23:12.020Z,23.97
2022-08-10T20:25:45.326Z,24.15
2022-08-10T20:28:16.352Z,24.12
2022-08-10T20:30:47.737Z,24.07
2022-08-10T20:33:23.757Z,24.05
2022-08-10T20:35:59.727Z,23.87
2022-08-10T20:38:38.526Z,23.87
2022-08-10T20:41:25.587Z,23.79
2022-08-10T20:44:11.829Z,23.75
2022-08-10T20:46:47.132Z,23.77
2022-08-10T20:49:29.741Z,23.81
2022-08-10T20:52:03.691Z,23.89
2022-08-10T20:54:35.819Z,24.00
2022-08-10T20:57:56.189Z,23.97
2022-08-10T21:00:25.088Z,24.03
2022-08-10T21:03:14.117Z,23.93
2022-08-10T21:06:09.354Z,24.03
2022-08-10T21:08:50.517Z,23.81
2022-08-10T21:11:36.406Z,23.76
2022-08-10T21:14:31.615Z,23.62
2022-08-10T21:17:14.835Z,23.44
2022-08-10T21:20:09.201Z,23.45
2022-08-10T21:22:43.126Z,23.38
2022-08-10T21:25:19.513Z,23.35
2022-08-10T21:28:10.856Z,23.23
2022-08-10T21:31:13.986Z,23.22
2022-08-10T21:33:50.139Z,23.14
2022-08-10T21:36:23.566Z,22.95
2022-08-10T21:39:06.594Z,22.84
2022-08-10T21:42:04.294Z,22.83
2022-08-10T21:45:08.969Z,22.71
2022-08-10T21:48:17.709Z,22.70
2022-08-10T21:51:14.757Z,22.64
2022-08-10T21:54:22.038Z,22.70
2022-08-10T21:57:21.462Z,22.67
2022-08-10T22:00:15.687Z,22.50
2022-08-10T22:03:02.585Z,22.42
2022-08-10T22:05:55.673Z,22.36
2022-08-10T22:08:53.446Z,22.23
2022-08-10T22:11:42.985Z,22.13
2022-08-10T22:14:34.001Z,22.09
2022-08-10T22:18:10.847Z,22.12
2022-08-10T22:20:36.913Z,22.15
2022-08-10T22:23:41.379Z,21.98
2022-08-10T22:26:37.763Z,21.80
2022-08-10T22:29:42.084Z,21.66
2022-08-10T22:32:42.359Z,21.62
2022-08-10T22:36:00.633Z,21.45
2022-08-10T22:39:02.298Z,21.32
2022-08-10T22:42:02.322Z,21.16
2022-08-10T22:44:55.081Z,21.01
2022-08-10T22:47:45.522Z,20.95
2022-08-10T22:50:19.392Z,20.82
2022-08-10T22:53:03.793Z,20.76
2022-08-10T22:55:53.987Z,20.65
2022-08-10T22:58:40.898Z,20.50
2022-08-10T23:01:38.710Z,20.48
2022-08-10T23:04:15.235Z,20.52
2022-08-10T23:06:52.477Z,20.66
2022-08-10T23:09:25.789Z,20.60
2022-08-10T23:12:01.719Z,20.60
2022-08-10T23:14:36.192Z,20.57
2022-08-10T23:17:26.081Z,20.53
2022-08-10T23:20:19.817Z,20.41
2022-08-10T23:22:51.852Z,20.36
2022-08-10T23:27:47.042Z,20.34
2022-08-10T23:30:19.146Z,20.24
2022-08-10T23:32:50.601Z,20.22
2022-08-10T23:36:31.130Z,20.26
2022-08-10T23:38:14.757Z,20.14
2022-08-10T23:40:46.247Z,20.05
2022-08-10T23:43:32.102Z,19.94
2022-08-10T23:46:11.264Z,19.86
2022-08-10T23:48:41.173Z,19.82
2022-08-10T23:51:16.469Z,19.77
2022-08-10T23:53:47.558Z,19.69
2022-08-10T23:56:18.167Z,19.68
2022-08-10T23:58:49.882Z,19.59
